Time;durP1;ratioP1;P1;durP2;ratioP2;P2;SDS_P1;SDS_P2;PMS_P1;PMS_P2;Temp;Humidity;BMP_temperature;BMP_pressure;BME280_temperature;BME280_humidity;BME280_pressure;Samples;Min_cycle;Max_cycle;Signal;HPM_P1;HPM_P2
2021/10/28 06:29:56;;;;;;;32.63;14.05;;;;;;;2.02;100.00;99516.28;5110240;27;20897;-82
2021/10/28 06:33:09;;;;;;;27.45;13.27;;;;;;;2.12;100.00;99537.84;5109080;28;20313;-82
2021/10/28 06:39:13;;;;;;;28.40;13.27;;;;;;;2.36;100.00;99543.09;5095773;28;20122;-82
2021/10/28 06:42:05;;;;;;;32.08;14.32;;;;;;;2.42;100.00;99526.47;5061360;28;20063;-81
2021/10/28 06:44:35;;;;;;;36.08;15.27;;;;;;;2.38;100.00;99525.06;5095428;28;20342;-81
2021/10/28 06:47:03;;;;;;;33.42;16.20;;;;;;;2.33;100.00;99529.06;5107013;28;20048;-81
2021/10/28 06:49:32;;;;;;;35.33;16.48;;;;;;;2.47;100.00;99534.19;5099135;28;20044;-81
2021/10/28 06:52:00;;;;;;;34.10;16.55;;;;;;;2.57;100.00;99543.19;5109654;28;20047;-81
2021/10/28 06:54:46;;;;;;;39.95;17.55;;;;;;;2.69;100.00;99527.06;5108524;28;20502;-81
2021/10/28 07:03:41;;;;;;;47.38;17.10;;;;;;;3.17;100.00;99535.56;5089014;28;20435;-81
2021/10/28 07:06:39;;;;;;;48.55;18.52;;;;;;;3.32;100.00;99543.34;5088707;28;20044;-81
2021/10/28 07:17:15;;;;;;;52.80;19.67;;;;;;;3.79;100.00;99534.88;5107591;28;20056;-80
2021/10/28 07:20:01;;;;;;;45.78;18.40;;;;;;;3.91;100.00;99515.00;5103278;28;20051;-80
2021/10/28 07:22:59;;;;;;;41.65;17.10;;;;;;;3.75;100.00;99514.63;5100411;28;20048;-81
2021/10/28 07:26:16;;;;;;;34.67;16.55;;;;;;;3.83;100.00;99520.19;5107431;28;20048;-80
2021/10/28 08:18:48;;;;;;;57.28;22.80;;;;;;;5.60;100.00;99487.19;5090484;28;20522;-81
2021/10/28 08:21:46;;;;;;;73.80;25.48;;;;;;;5.86;100.00;99484.72;5073501;28;20499;-81
2021/10/28 08:30:46;;;;;;;46.35;21.33;;;;;;;6.31;100.00;99461.56;5074406;28;20097;-80
2021/10/28 08:33:41;;;;;;;47.42;20.17;;;;;;;6.46;100.00;99469.97;5031577;28;20597;-80
2021/10/28 09:46:19;;;;;;;22.60;13.70;;;;;;;8.48;100.00;99433.13;5010057;28;20598;-80
2021/10/28 09:53:21;;;;;;;25.52;12.85;;;;;;;8.77;100.00;99429.13;4951386;28;20553;-80
2021/10/28 09:59:11;;;;;;;22.35;13.70;;;;;;;8.80;100.00;99421.50;5016077;28;20401;-80
2021/10/28 10:02:20;;;;;;;24.90;13.93;;;;;;;8.74;100.00;99418.63;5031764;28;20077;-80
2021/10/28 10:05:17;;;;;;;24.55;14.07;;;;;;;8.91;100.00;99433.03;5031946;28;20053;-80
2021/10/28 10:08:07;;;;;;;21.38;12.50;;;;;;;8.89;100.00;99418.81;5027325;28;20045;-80
2021/10/28 10:17:41;;;;;;;23.80;13.70;;;;;;;8.98;100.00;99415.09;5020254;28;20504;-81
2021/10/28 11:28:58;;;;;;;23.20;13.68;;;;;;;10.76;93.34;99347.81;5009815;28;20052;-81
2021/10/28 12:44:04;;;;;;;20.13;13.10;;;;;;;12.49;85.26;99275.00;5030320;28;20128;-81
2021/10/28 12:46:59;;;;;;;16.85;11.27;;;;;;;12.49;84.58;99261.38;5033606;28;20059;-81
2021/10/28 12:52:33;;;;;;;23.08;12.18;;;;;;;12.62;84.19;99257.09;5025874;28;20111;-81
2021/10/28 13:03:55;;;;;;;18.10;11.52;;;;;;;12.63;82.75;99243.28;5033003;28;20136;-81
2021/10/28 13:48:00;;;;;;;18.52;10.30;;;;;;;13.14;77.63;99225.78;5020637;28;20037;-81
2021/10/28 13:50:04;;;;;;;17.13;10.73;;;;;;;13.17;78.44;99206.31;5032720;28;20115;-81
2021/10/28 13:52:48;;;;;;;17.13;11.13;;;;;;;13.17;79.03;99203.59;5031066;28;20485;-81
2021/10/28 13:55:36;;;;;;;17.95;11.10;;;;;;;13.24;79.26;99211.81;5031198;28;20065;-81
2021/10/28 15:01:21;;;;;;;17.55;9.93;;;;;;;12.91;78.22;99171.50;5035549;28;20523;-81
2021/10/28 15:29:31;;;;;;;14.88;8.27;;;;;;;12.10;84.10;99150.09;5035041;28;20048;-81
2021/10/28 15:37:46;;;;;;;14.80;9.07;;;;;;;11.70;86.09;99142.31;5040945;28;20408;-81
2021/10/28 15:40:18;;;;;;;12.20;7.75;;;;;;;11.60;87.44;99145.34;5053883;28;20055;-81
2021/10/28 15:43:45;;;;;;;13.30;8.32;;;;;;;11.42;89.06;99158.53;5053611;28;20147;-81
2021/10/28 16:00:50;;;;;;;14.55;7.35;;;;;;;10.59;95.20;99134.19;5054051;28;20044;-81
2021/10/28 16:22:31;;;;;;;12.75;7.43;;;;;;;9.55;98.88;99146.34;5054060;28;20094;-81
2021/10/28 16:25:02;;;;;;;14.38;6.78;;;;;;;9.34;99.52;99138.84;5053839;28;20091;-81
2021/10/28 16:27:31;;;;;;;10.70;6.53;;;;;;;9.12;100.00;99129.63;5053755;28;20052;-81
2021/10/28 16:30:04;;;;;;;16.83;6.80;;;;;;;8.98;100.00;99124.94;5053543;28;20049;-81
2021/10/28 16:32:33;;;;;;;12.10;6.50;;;;;;;8.80;100.00;99136.84;5052210;28;20056;-80
2021/10/28 16:35:05;;;;;;;11.68;6.13;;;;;;;8.79;100.00;99143.31;5051118;28;20049;-82
2021/10/28 16:37:32;;;;;;;16.35;7.47;;;;;;;8.77;100.00;99149.91;5046815;28;20055;-82
2021/10/28 16:39:59;;;;;;;17.42;6.50;;;;;;;8.54;100.00;99142.53;5048472;28;20495;-82
2021/10/28 16:42:26;;;;;;;13.48;7.85;;;;;;;8.48;100.00;99145.94;5053551;28;20479;-82
2021/10/28 16:44:56;;;;;;;10.60;6.60;;;;;;;8.37;100.00;99138.09;5053319;28;20404;-82
2021/10/28 16:47:25;;;;;;;13.70;6.80;;;;;;;8.22;100.00;99154.19;5052737;28;20404;-82
2021/10/28 16:49:52;;;;;;;9.75;5.78;;;;;;;7.96;100.00;99128.13;5052182;28;20123;-82
2021/10/28 16:52:22;;;;;;;12.40;6.07;;;;;;;8.03;100.00;99140.00;5051486;28;20038;-82
2021/10/28 16:54:49;;;;;;;10.43;5.88;;;;;;;8.06;100.00;99150.47;5045407;28;20049;-82
2021/10/28 16:57:18;;;;;;;15.80;6.32;;;;;;;7.87;100.00;99130.00;5035107;28;20547;-82
2021/10/28 16:59:48;;;;;;;11.63;5.55;;;;;;;7.89;100.00;99144.22;5033513;28;20106;-82
2021/10/28 17:20:17;;;;;;;;;;;;;;;;;;;;;
2021/10/28 17:26:20;;;;;;;12.00;7.72;;;;;;;6.94;100.00;99132.81;4816221;29;20511;-82
2021/10/28 17:41:57;;;;;;;13.52;6.28;;;;;;;6.57;100.00;99131.28;4914005;29;20087;-82
2021/10/28 17:45:36;;;;;;;13.20;5.85;;;;;;;6.45;100.00;99149.63;4952217;28;20423;-82
2021/10/28 17:55:03;;;;;;;13.20;6.15;;;;;;;6.38;100.00;99144.00;4990117;28;20110;-82
2021/10/28 18:01:50;;;;;;;12.93;6.32;;;;;;;6.24;100.00;99158.06;5009547;28;20100;-82
2021/10/28 18:04:48;;;;;;;18.85;6.57;;;;;;;6.00;100.00;99129.88;5009566;28;20057;-82
2021/10/28 18:07:39;;;;;;;10.98;6.97;;;;;;;6.03;100.00;99164.66;5009870;28;20057;-82
2021/10/28 18:10:09;;;;;;;12.70;7.00;;;;;;;5.97;100.00;99149.09;5011482;28;20053;-82
2021/10/28 18:12:37;;;;;;;10.13;6.38;;;;;;;5.90;100.00;99159.63;5045812;28;20124;-82
2021/10/28 18:15:07;;;;;;;16.02;7.28;;;;;;;5.87;100.00;99168.00;5050896;28;20508;-82
2021/10/28 18:18:21;;;;;;;9.52;6.20;;;;;;;5.91;100.00;99158.63;5046427;28;20042;-82
2021/10/28 18:20:53;;;;;;;10.23;6.40;;;;;;;5.81;100.00;99156.00;5039558;28;20060;-82
2021/10/28 18:23:20;;;;;;;10.57;5.78;;;;;;;5.74;100.00;99154.09;5042684;28;20338;-82
2021/10/28 18:25:47;;;;;;;10.75;6.40;;;;;;;5.64;100.00;99135.28;5051699;28;20416;-82
2021/10/28 18:28:22;;;;;;;10.05;5.95;;;;;;;5.66;100.00;99144.91;5052014;28;20060;-82
2021/10/28 18:34:15;;;;;;;10.25;6.50;;;;;;;5.78;100.00;99145.53;5052056;28;20424;-82
2021/10/28 18:36:52;;;;;;;12.27;6.53;;;;;;;5.53;100.00;99133.66;5047107;28;20041;-82
2021/10/28 18:39:24;;;;;;;15.27;6.78;;;;;;;5.34;100.00;99128.41;5051439;28;20071;-82
2021/10/28 18:41:52;;;;;;;9.05;5.40;;;;;;;5.39;100.00;99142.25;5051678;28;20053;-81
2021/10/28 18:44:23;;;;;;;10.52;5.93;;;;;;;5.39;100.00;99145.81;5031791;28;20053;-82
2021/10/28 18:46:49;;;;;;;;;;;;;;;5.36;100.00;99135.34;5032400;28;20485;-82
2021/10/28 18:49:17;;;;;;;11.48;6.07;;;;;;;5.25;100.00;99124.75;5049089;28;19983;-82
2021/10/28 18:51:51;;;;;;;11.27;6.53;;;;;;;5.25;100.00;99136.38;5051177;28;20060;-82
2021/10/28 18:54:18;;;;;;;9.98;6.63;;;;;;;5.17;100.00;99127.38;5045602;28;20103;-82
2021/10/28 18:56:53;;;;;;;10.60;6.38;;;;;;;5.20;100.00;99137.84;5051917;28;20111;-82
2021/10/28 18:59:20;;;;;;;11.45;6.97;;;;;;;5.12;100.00;99117.06;5051114;28;20406;-82
2021/10/28 19:01:49;;;;;;;14.02;7.20;;;;;;;5.15;100.00;99130.22;5051493;28;20051;-82
2021/10/28 19:04:41;;;;;;;17.02;7.63;;;;;;;5.09;100.00;99122.75;5052032;28;20122;-82
2021/10/28 19:07:12;;;;;;;12.05;6.82;;;;;;;4.96;100.00;99117.69;5051415;28;20056;-81
2021/10/28 19:09:39;;;;;;;13.63;7.65;;;;;;;4.91;100.00;99120.00;5042914;28;20176;-82
2021/10/28 19:12:07;;;;;;;11.40;6.90;;;;;;;4.89;100.00;99114.78;5050384;28;20056;-83
2021/10/28 19:14:38;;;;;;;14.98;7.30;;;;;;;4.83;100.00;99118.03;5051511;28;20118;-82
2021/10/28 19:17:05;;;;;;;11.90;7.80;;;;;;;4.82;100.00;99119.06;5051249;28;20060;-82
2021/10/28 19:19:31;;;;;;;14.82;7.63;;;;;;;4.82;100.00;99108.28;5051203;28;20045;-83
2021/10/28 19:21:58;;;;;;;16.48;7.65;;;;;;;4.73;100.00;99115.41;5050906;28;20056;-82
2021/10/28 19:24:26;;;;;;;13.23;7.50;;;;;;;4.67;100.00;99118.69;5050126;28;20045;-82
2021/10/28 19:26:53;;;;;;;11.73;7.05;;;;;;;4.78;100.00;99107.72;5045960;28;20053;-82
2021/10/28 19:29:32;;;;;;;12.45;7.57;;;;;;;4.64;100.00;99096.56;5051203;28;20558;-82
2021/10/28 19:32:03;;;;;;;15.18;7.32;;;;;;;4.67;100.00;99109.78;5051510;28;20276;-82
2021/10/28 19:34:35;;;;;;;10.85;6.95;;;;;;;4.64;100.00;99100.13;5031884;28;20045;-82
2021/10/28 19:37:07;;;;;;;11.15;6.10;;;;;;;4.62;100.00;99094.03;5034875;28;20050;-82
2021/10/28 19:45:27;;;;;;;10.75;6.10;;;;;;;4.46;100.00;99094.69;5044893;28;20050;-82
2021/10/28 19:47:54;;;;;;;8.52;5.75;;;;;;;4.46;100.00;99104.59;5036714;28;20060;-82
2021/10/28 19:50:21;;;;;;;11.57;6.25;;;;;;;4.35;100.00;99111.00;5054637;28;20041;-82
2021/10/28 19:52:48;;;;;;;11.20;5.65;;;;;;;4.22;100.00;99093.34;5054520;28;20049;-82
2021/10/28 20:03:08;;;;;;;9.27;6.10;;;;;;;4.09;100.00;99090.09;4964544;28;20086;-82
2021/10/28 20:22:08;;;;;;;12.32;7.05;;;;;;;3.97;100.00;99102.03;4980517;28;20504;-82
2021/10/28 20:27:42;;;;;;;12.05;6.90;;;;;;;3.86;100.00;99085.06;5032985;28;20081;-83
2021/10/28 20:30:44;;;;;;;13.07;7.25;;;;;;;3.84;100.00;99078.13;5052618;28;20496;-82
2021/10/28 20:44:00;;;;;;;15.43;8.68;;;;;;;3.64;100.00;99086.19;4896912;29;20104;-83
2021/10/28 20:46:27;;;;;;;18.98;10.63;;;;;;;3.69;100.00;99075.88;4943344;28;20377;-85
2021/10/28 20:49:01;;;;;;;20.45;9.38;;;;;;;3.60;100.00;99074.06;5049790;28;20477;-85
2021/10/28 20:51:27;;;;;;;18.90;9.38;;;;;;;3.62;100.00;99081.97;5048603;28;20049;-85
2021/10/28 20:53:54;;;;;;;17.90;9.15;;;;;;;3.60;100.00;99075.88;5038183;28;20497;-86
2021/10/28 20:56:25;;;;;;;17.27;9.50;;;;;;;3.76;100.00;99089.59;5049113;28;20045;-86
2021/10/28 20:58:56;;;;;;;20.27;10.23;;;;;;;3.76;100.00;99086.91;5053413;28;20045;-86
2021/10/28 21:01:24;;;;;;;15.82;9.18;;;;;;;3.60;100.00;99073.19;5054065;28;20396;-86
2021/10/28 21:03:52;;;;;;;14.63;8.40;;;;;;;3.47;100.00;99058.22;5054124;28;20107;-86
2021/10/28 21:06:19;;;;;;;19.35;9.65;;;;;;;3.43;100.00;99072.06;5053067;28;20052;-86
2021/10/28 21:08:46;;;;;;;17.25;9.55;;;;;;;3.35;100.00;99079.00;5047252;28;20412;-86
2021/10/28 21:11:13;;;;;;;17.75;8.73;;;;;;;3.26;100.00;99073.63;5054885;28;20500;-86
2021/10/28 21:13:40;;;;;;;16.73;9.20;;;;;;;3.17;100.00;99056.50;5054406;28;20059;-86
2021/10/28 21:16:07;;;;;;;14.90;8.68;;;;;;;3.18;100.00;99075.19;5054424;28;20053;-86
2021/10/28 21:18:36;;;;;;;20.17;9.82;;;;;;;3.25;100.00;99070.09;5054197;28;20048;-86
2021/10/28 21:21:03;;;;;;;22.55;11.35;;;;;;;3.23;100.00;99060.47;5053973;28;20139;-86
2021/10/28 21:23:30;;;;;;;20.10;10.10;;;;;;;3.24;100.00;99062.16;5053478;28;20087;-86
2021/10/28 21:25:57;;;;;;;21.75;10.15;;;;;;;3.19;100.00;99059.91;5053817;28;20497;-86
2021/10/28 21:28:24;;;;;;;19.48;11.27;;;;;;;3.18;100.00;99072.50;5054111;28;20400;-86
2021/10/28 21:30:50;;;;;;;20.13;11.18;;;;;;;3.07;100.00;99061.88;5053781;28;20049;-86
2021/10/28 21:33:17;;;;;;;21.83;11.80;;;;;;;3.14;100.00;99076.44;5054172;28;20458;-85
2021/10/28 21:35:46;;;;;;;32.35;11.77;;;;;;;3.06;100.00;99062.88;5034027;28;20057;-86
2021/10/28 21:38:13;;;;;;;22.65;11.45;;;;;;;3.03;100.00;99054.22;5033891;28;20057;-86
2021/10/28 21:40:40;;;;;;;26.80;12.27;;;;;;;3.06;100.00;99059.34;5052692;28;20476;-86
2021/10/28 21:43:07;;;;;;;20.27;10.70;;;;;;;3.01;100.00;99057.91;5050021;28;20056;-86
2021/10/28 21:45:34;;;;;;;24.40;11.77;;;;;;;2.98;100.00;99060.88;5046698;28;20096;-86
2021/10/28 21:48:01;;;;;;;24.88;11.73;;;;;;;2.99;100.00;99043.75;5034064;28;20053;-86
2021/10/28 21:50:30;;;;;;;30.85;14.70;;;;;;;2.86;100.00;99035.16;5041077;28;20056;-86
2021/10/28 21:53:01;;;;;;;26.35;13.82;;;;;;;2.86;100.00;99043.19;5053961;28;20048;-86
2021/10/28 21:55:37;;;;;;;28.02;13.80;;;;;;;2.85;100.00;99056.75;5049498;28;20076;-86
2021/10/28 21:58:09;;;;;;;24.88;13.18;;;;;;;2.81;100.00;99064.22;5044832;28;20045;-86
2021/10/28 22:00:43;;;;;;;27.20;13.15;;;;;;;2.73;100.00;99038.06;5053401;28;20037;-86
2021/10/28 22:03:32;;;;;;;23.85;12.70;;;;;;;2.76;100.00;99059.28;5052789;28;20484;-86
2021/10/28 22:25:09;;;;;;;18.08;10.20;;;;;;;2.63;100.00;99045.25;5051894;28;20563;-86
2021/10/28 22:27:37;;;;;;;19.77;10.02;;;;;;;2.52;100.00;99026.59;5053342;28;20048;-86
2021/10/28 22:30:05;;;;;;;22.15;10.77;;;;;;;2.35;100.00;99034.31;5046437;28;20044;-86
2021/10/28 22:32:32;;;;;;;21.40;10.90;;;;;;;2.55;100.00;99039.72;5046342;28;20053;-86
2021/10/28 22:35:01;;;;;;;24.85;10.77;;;;;;;2.59;100.00;99038.44;5048546;28;20110;-86
2021/10/28 22:37:39;;;;;;;22.75;13.18;;;;;;;2.54;100.00;99025.44;5053405;28;20111;-86
2021/10/28 22:40:16;;;;;;;24.92;10.60;;;;;;;2.52;100.00;99027.44;5052716;28;20052;-86
2021/10/28 22:42:45;;;;;;;27.00;11.55;;;;;;;2.53;100.00;99023.75;5052228;28;20127;-85
2021/10/28 22:45:14;;;;;;;22.35;10.82;;;;;;;2.47;100.00;99030.53;5051864;28;20044;-86
2021/10/28 22:47:41;;;;;;;24.85;11.13;;;;;;;2.36;100.00;99040.50;5046009;28;20452;-87
2021/10/28 22:50:10;;;;;;;26.33;10.35;;;;;;;2.17;100.00;99009.94;5050913;28;20061;-86
2021/10/28 22:52:37;;;;;;;19.85;10.73;;;;;;;2.21;100.00;99030.13;5051674;28;20049;-87
2021/10/28 22:55:07;;;;;;;20.00;10.23;;;;;;;2.29;100.00;99033.00;5051658;28;20052;-86
2021/10/28 22:57:41;;;;;;;19.00;10.60;;;;;;;2.23;100.00;99012.09;5051340;28;20071;-86
2021/10/28 23:00:17;;;;;;;26.40;11.82;;;;;;;2.31;100.00;99011.41;5051721;28;20144;-86
2021/10/28 23:02:49;;;;;;;24.63;10.73;;;;;;;2.28;100.00;99006.31;5051624;28;20136;-86
2021/10/28 23:05:26;;;;;;;22.25;11.02;;;;;;;2.20;100.00;98993.59;5050749;28;20499;-86
2021/10/28 23:11:00;;;;;;;21.83;11.00;;;;;;;2.04;100.00;98986.03;5018128;28;20128;-86
2021/10/28 23:21:41;;;;;;;17.15;10.10;;;;;;;2.12;100.00;98985.34;5053055;28;20055;-87
2021/10/28 23:24:09;;;;;;;20.52;9.95;;;;;;;2.09;100.00;98988.31;5055566;28;20523;-86
2021/10/28 23:26:36;;;;;;;25.88;11.23;;;;;;;2.20;100.00;98996.25;5055386;28;20044;-86
2021/10/28 23:29:02;;;;;;;20.67;10.98;;;;;;;2.13;100.00;99001.31;5055867;28;20099;-86
2021/10/28 23:31:31;;;;;;;16.88;9.32;;;;;;;2.11;100.00;98981.00;5055912;28;20045;-87
2021/10/28 23:33:58;;;;;;;20.65;11.15;;;;;;;2.16;100.00;98988.63;5054660;28;20052;-87
2021/10/28 23:36:25;;;;;;;19.17;9.93;;;;;;;2.04;100.00;98969.94;5054541;28;20087;-87
2021/10/28 23:38:52;;;;;;;21.85;9.43;;;;;;;2.01;100.00;98970.22;5045659;28;20447;-86
2021/10/28 23:41:19;;;;;;;20.33;10.10;;;;;;;2.08;100.00;98966.00;5034396;28;20041;-86
2021/10/28 23:43:46;;;;;;;17.75;9.25;;;;;;;2.07;100.00;98964.31;5048976;28;20538;-87
2021/10/28 23:46:12;;;;;;;14.60;9.27;;;;;;;2.03;100.00;98964.72;5055266;28;20049;-86
2021/10/28 23:48:41;;;;;;;17.23;8.93;;;;;;;1.89;100.00;98972.13;5054797;28;20049;-87
2021/10/28 23:51:07;;;;;;;12.90;8.52;;;;;;;1.81;100.00;98965.75;5056004;28;20542;-87
2021/10/28 23:53:34;;;;;;;19.80;9.30;;;;;;;1.91;100.00;98969.31;5053384;28;20045;-87
2021/10/28 23:56:01;;;;;;;17.27;8.90;;;;;;;1.88;100.00;98962.41;5037490;28;20092;-87
2021/10/28 23:58:28;;;;;;;18.58;8.98;;;;;;;1.97;100.00;98968.78;5046353;28;20052;-87
